Time;durP1;ratioP1;P1;durP2;ratioP2;P2;SDS_P1;SDS_P2;PMS_P1;PMS_P2;Temp;Humidity;BMP_temperature;BMP_pressure;BME280_temperature;BME280_humidity;BME280_pressure;Samples;Min_cycle;Max_cycle;Signal;HPM_P1;HPM_P2
2022/09/18 00:00:47;;;;;;;9.70;1.35;;;10.20;99.90;;;;;;5080575;28;20052;-82
2022/09/18 00:03:14;;;;;;;9.98;1.25;;;10.20;99.90;;;;;;5082298;28;20096;-81
2022/09/18 00:05:41;;;;;;;13.00;1.55;;;10.20;99.90;;;;;;5082447;28;20036;-82
2022/09/18 00:08:07;;;;;;;8.00;1.50;;;10.10;99.90;;;;;;5080167;28;20036;-81
2022/09/18 00:10:39;;;;;;;10.65;1.13;;;10.10;99.90;;;;;;5083451;28;20043;-81
2022/09/18 00:13:05;;;;;;;;;;;10.00;99.90;;;;;;5083165;28;20540;-80
2022/09/18 00:15:30;;;;;;;7.75;1.20;;;10.00;99.90;;;;;;5083101;28;19920;-81
2022/09/18 00:17:56;;;;;;;6.43;1.10;;;10.00;99.90;;;;;;5062215;28;20049;-86
2022/09/18 00:20:21;;;;;;;9.60;1.33;;;10.00;99.90;;;;;;5080829;28;20076;-81
2022/09/18 00:22:47;;;;;;;12.77;1.27;;;10.00;99.90;;;;;;5079786;28;20414;-82
2022/09/18 00:25:13;;;;;;;11.80;1.13;;;10.00;99.90;;;;;;5081448;28;20081;-82
2022/09/18 00:27:38;;;;;;;8.30;1.77;;;10.00;99.90;;;;;;5082580;28;20498;-81
2022/09/18 00:30:05;;;;;;;9.55;1.23;;;10.00;99.90;;;;;;5080443;28;20110;-85
2022/09/18 00:32:30;;;;;;;7.78;1.52;;;10.10;99.90;;;;;;5086198;28;20553;-81
2022/09/18 00:34:56;;;;;;;10.18;1.17;;;10.10;99.90;;;;;;5080926;28;20173;-81
2022/09/18 00:37:21;;;;;;;7.15;0.90;;;10.10;99.90;;;;;;5083063;28;20036;-81
2022/09/18 00:39:47;;;;;;;14.07;1.95;;;10.10;99.90;;;;;;5081710;28;20414;-82
2022/09/18 00:42:13;;;;;;;8.63;1.08;;;10.20;99.90;;;;;;5085351;28;20572;-85
2022/09/18 00:44:45;;;;;;;10.40;1.70;;;10.20;99.90;;;;;;5082242;28;20527;-81
2022/09/18 00:47:16;;;;;;;8.77;1.48;;;10.20;99.90;;;;;;5085711;28;20775;-81
2022/09/18 00:49:55;;;;;;;11.00;1.35;;;10.20;99.90;;;;;;5080491;28;20044;-81
2022/09/18 00:52:25;;;;;;;10.10;1.30;;;10.30;99.90;;;;;;5113790;27;20052;-85
2022/09/18 00:55:01;;;;;;;8.70;2.17;;;10.30;99.90;;;;;;5078910;28;20056;-81
2022/09/18 00:57:31;;;;;;;8.38;1.02;;;10.40;99.90;;;;;;5099167;28;20376;-81
2022/09/18 00:59:59;;;;;;;5.97;0.82;;;10.40;99.90;;;;;;5078772;28;20048;-81
2022/09/18 01:02:24;;;;;;;4.75;0.90;;;10.40;99.90;;;;;;5084107;28;20048;-81
2022/09/18 01:04:50;;;;;;;9.00;1.52;;;10.40;99.90;;;;;;5086827;28;20055;-81
2022/09/18 01:07:43;;;;;;;9.52;1.20;;;10.40;99.90;;;;;;5084208;28;20440;-83
2022/09/18 01:10:18;;;;;;;6.65;1.20;;;10.50;99.90;;;;;;5086929;28;20106;-81
2022/09/18 01:12:55;;;;;;;6.70;1.00;;;10.50;99.90;;;;;;5075008;28;20147;-81
2022/09/18 01:15:24;;;;;;;7.10;1.15;;;10.50;99.90;;;;;;5085653;28;20135;-81
2022/09/18 01:18:09;;;;;;;8.50;0.93;;;10.60;99.90;;;;;;5085564;28;20044;-81
2022/09/18 01:21:00;;;;;;;6.75;0.90;;;10.50;99.90;;;;;;5078549;28;20048;-81
2022/09/18 01:23:38;;;;;;;4.97;0.85;;;10.60;99.90;;;;;;5083086;28;20524;-82
2022/09/18 01:26:13;;;;;;;5.25;1.73;;;10.60;99.90;;;;;;5085425;28;20047;-80
2022/09/18 01:28:55;;;;;;;7.63;0.80;;;10.60;99.90;;;;;;5085589;28;20105;-81
2022/09/18 01:32:07;;;;;;;7.75;0.80;;;10.70;99.90;;;;;;5086399;28;20474;-80
2022/09/18 01:35:12;;;;;;;5.35;2.08;;;10.70;99.90;;;;;;5082954;28;20052;-84
2022/09/18 01:37:50;;;;;;;8.55;0.90;;;10.70;99.90;;;;;;5066312;28;20044;-82
2022/09/18 01:40:27;;;;;;;3.72;0.80;;;10.70;99.90;;;;;;5069690;28;20052;-86
2022/09/18 01:42:58;;;;;;;4.15;1.25;;;10.80;99.90;;;;;;5074551;28;20091;-85
2022/09/18 01:45:31;;;;;;;5.88;1.08;;;10.80;99.90;;;;;;5087236;28;20044;-81
2022/09/18 01:48:01;;;;;;;5.88;0.93;;;10.80;99.90;;;;;;5085443;28;20036;-81
2022/09/18 01:50:32;;;;;;;7.10;0.90;;;10.80;99.90;;;;;;5085642;28;20051;-82
2022/09/18 01:53:06;;;;;;;4.50;0.68;;;10.80;99.90;;;;;;5085179;28;20048;-82
2022/09/18 01:55:33;;;;;;;8.55;1.00;;;10.80;99.90;;;;;;5086253;28;20060;-81
2022/09/18 01:58:11;;;;;;;7.78;0.93;;;10.80;99.90;;;;;;5086757;28;20063;-82
2022/09/18 02:00:42;;;;;;;6.80;1.25;;;10.80;99.90;;;;;;5080676;28;20044;-81
2022/09/18 02:03:36;;;;;;;6.93;1.00;;;10.80;99.90;;;;;;5086467;28;20043;-81
2022/09/18 02:06:11;;;;;;;5.32;1.33;;;10.90;99.90;;;;;;5082269;28;20189;-81
2022/09/18 02:08:48;;;;;;;7.20;1.20;;;10.90;99.90;;;;;;5090515;28;20059;-82
2022/09/18 02:11:16;;;;;;;7.68;0.70;;;10.90;99.90;;;;;;5087863;28;20483;-79
2022/09/18 02:13:50;;;;;;;9.57;1.10;;;10.90;99.90;;;;;;5121849;27;20526;-82
2022/09/18 02:16:24;;;;;;;3.88;0.73;;;11.00;99.90;;;;;;5090606;28;20119;-80
2022/09/18 02:18:54;;;;;;;6.70;1.20;;;10.90;99.90;;;;;;5085909;28;20044;-80
2022/09/18 02:21:26;;;;;;;4.68;0.90;;;11.00;99.90;;;;;;5088328;28;20040;-80
2022/09/18 02:24:06;;;;;;;7.10;1.02;;;11.00;99.90;;;;;;5102540;28;20074;-81
2022/09/18 02:26:34;;;;;;;3.78;0.80;;;11.00;99.90;;;;;;5087384;28;20047;-80
2022/09/18 02:29:02;;;;;;;6.22;1.13;;;11.00;99.90;;;;;;5091995;28;20048;-80
2022/09/18 02:31:28;;;;;;;5.55;0.80;;;11.00;99.90;;;;;;5088103;28;20342;-80
2022/09/18 02:33:59;;;;;;;6.20;0.65;;;11.00;99.90;;;;;;5090011;28;20100;-79
2022/09/18 02:36:37;;;;;;;4.45;0.90;;;11.00;99.90;;;;;;5077490;28;20453;-79
2022/09/18 02:39:06;;;;;;;7.53;1.35;;;11.00;99.90;;;;;;5083448;28;20044;-80
2022/09/18 02:42:09;;;;;;;7.22;0.90;;;11.00;99.90;;;;;;5086226;28;20048;-79
2022/09/18 02:45:00;;;;;;;5.88;0.73;;;11.00;99.90;;;;;;5089320;28;20124;-79
2022/09/18 02:47:32;;;;;;;1.63;1.25;;;11.00;99.90;;;;;;5090310;28;20048;-81
2022/09/18 02:50:13;;;;;;;5.82;1.15;;;11.00;99.90;;;;;;5092858;28;20040;-84
2022/09/18 02:52:53;;;;;;;4.45;0.90;;;11.00;99.90;;;;;;5090824;28;20070;-84
2022/09/18 02:55:25;;;;;;;3.47;0.57;;;10.90;99.90;;;;;;5085206;28;20505;-79
2022/09/18 02:58:04;;;;;;;7.05;0.82;;;10.90;99.90;;;;;;5089026;28;20875;-86
2022/09/18 03:00:31;;;;;;;5.05;0.80;;;10.90;99.90;;;;;;5077113;28;20052;-79
2022/09/18 03:02:58;;;;;;;3.70;0.93;;;11.00;99.90;;;;;;5086176;28;20040;-81
2022/09/18 03:05:24;;;;;;;2.80;0.70;;;11.00;99.90;;;;;;5087620;28;20040;-80
2022/09/18 03:07:50;;;;;;;5.03;0.50;;;10.90;99.90;;;;;;5084980;28;20443;-80
2022/09/18 03:10:16;;;;;;;3.03;0.70;;;10.90;99.90;;;;;;5091319;28;20051;-80
2022/09/18 03:12:42;;;;;;;2.05;0.50;;;10.90;99.90;;;;;;5088455;28;20048;-82
2022/09/18 03:15:08;;;;;;;5.80;0.50;;;10.90;99.90;;;;;;5083589;28;22213;-81
2022/09/18 03:17:34;;;;;;;3.53;0.60;;;10.90;99.90;;;;;;5087134;28;20051;-83
2022/09/18 03:20:02;;;;;;;4.85;1.13;;;10.90;99.90;;;;;;5091858;28;20036;-82
2022/09/18 03:22:28;;;;;;;10.23;1.70;;;10.90;99.90;;;;;;5083505;28;20059;-83
2022/09/18 03:24:54;;;;;;;3.65;1.00;;;10.90;99.90;;;;;;5088268;28;20052;-79
2022/09/18 03:27:19;;;;;;;4.63;1.30;;;10.90;99.90;;;;;;5084499;28;20538;-80
2022/09/18 03:29:45;;;;;;;8.32;0.85;;;10.90;99.90;;;;;;5083187;28;20058;-80
2022/09/18 03:32:11;;;;;;;6.32;0.70;;;10.90;99.90;;;;;;5085826;28;20131;-79
2022/09/18 03:34:40;;;;;;;6.13;1.10;;;10.90;99.90;;;;;;5083046;28;20047;-83
2022/09/18 03:37:05;;;;;;;4.30;0.70;;;10.90;99.90;;;;;;5088448;28;20036;-79
2022/09/18 03:39:31;;;;;;;3.83;0.90;;;10.90;99.90;;;;;;5089132;28;20418;-81
2022/09/18 03:41:57;;;;;;;8.70;1.10;;;10.90;99.90;;;;;;5087415;28;20047;-80
2022/09/18 03:44:22;;;;;;;2.90;0.65;;;10.90;99.90;;;;;;5087178;28;20040;-79
2022/09/18 03:46:49;;;;;;;2.03;0.65;;;10.90;99.90;;;;;;5082554;28;20113;-82
2022/09/18 03:49:16;;;;;;;7.20;2.03;;;10.90;99.90;;;;;;5086633;28;20036;-81
2022/09/18 03:51:42;;;;;;;5.93;0.80;;;10.80;99.90;;;;;;5073740;28;20048;-82
2022/09/18 03:54:08;;;;;;;3.35;0.60;;;10.90;99.90;;;;;;5085605;28;20132;-81
2022/09/18 03:56:37;;;;;;;5.63;0.90;;;10.80;99.90;;;;;;5083231;28;20064;-84
2022/09/18 03:59:04;;;;;;;7.25;1.15;;;10.80;99.90;;;;;;5083429;28;20346;-80
2022/09/18 04:01:29;;;;;;;4.43;0.80;;;10.80;99.90;;;;;;5078958;28;20035;-80
2022/09/18 04:03:57;;;;;;;3.17;0.52;;;10.80;99.90;;;;;;5084835;28;20502;-80
2022/09/18 04:06:24;;;;;;;6.78;0.75;;;10.80;99.90;;;;;;5087611;28;20452;-81
2022/09/18 04:08:50;;;;;;;6.60;0.77;;;10.80;99.90;;;;;;5068683;28;20494;-80
2022/09/18 04:11:15;;;;;;;5.90;0.63;;;10.70;99.90;;;;;;5086993;28;20036;-80
2022/09/18 04:13:42;;;;;;;5.13;0.57;;;10.70;99.90;;;;;;5087915;28;20068;-80
2022/09/18 04:16:08;;;;;;;4.50;1.00;;;10.70;99.90;;;;;;5082205;28;20052;-81
2022/09/18 04:18:34;;;;;;;6.07;0.70;;;10.70;99.90;;;;;;5080573;28;20049;-81
2022/09/18 04:20:59;;;;;;;5.03;0.88;;;10.70;99.90;;;;;;5082620;28;20047;-80
2022/09/18 04:23:25;;;;;;;5.07;1.08;;;10.70;99.90;;;;;;5084418;28;20043;-80
2022/09/18 04:25:51;;;;;;;3.63;0.93;;;10.70;99.90;;;;;;5084310;28;20048;-79
2022/09/18 04:28:24;;;;;;;5.97;1.15;;;10.70;99.90;;;;;;5094620;28;20042;-79
2022/09/18 04:30:50;;;;;;;1.90;0.57;;;10.70;99.90;;;;;;5089822;28;20052;-80
2022/09/18 04:33:15;;;;;;;3.47;0.60;;;10.70;99.90;;;;;;5099213;28;20502;-82
2022/09/18 04:35:44;;;;;;;6.78;0.88;;;10.80;99.90;;;;;;5087526;28;20033;-81
2022/09/18 04:38:11;;;;;;;6.25;0.80;;;10.80;99.90;;;;;;5072416;28;20130;-79
2022/09/18 04:40:36;;;;;;;3.83;0.50;;;10.80;99.90;;;;;;5085022;28;20059;-79
2022/09/18 04:43:03;;;;;;;7.22;0.70;;;10.80;99.90;;;;;;5079923;28;20048;-82
2022/09/18 04:45:29;;;;;;;5.32;0.82;;;10.80;99.90;;;;;;5090718;28;20055;-80
2022/09/18 04:47:55;;;;;;;9.02;1.17;;;10.80;99.90;;;;;;5091899;28;20055;-80
2022/09/18 04:50:20;;;;;;;8.50;1.90;;;10.80;99.90;;;;;;5089372;28;20157;-78
2022/09/18 04:52:49;;;;;;;6.78;0.88;;;10.80;99.90;;;;;;5085100;28;20457;-80
2022/09/18 04:55:15;;;;;;;3.70;0.50;;;10.80;99.90;;;;;;5085026;28;20045;-82
2022/09/18 04:57:41;;;;;;;3.97;0.77;;;10.80;99.90;;;;;;5081888;28;20489;-82
2022/09/18 05:00:08;;;;;;;5.78;0.55;;;10.80;99.90;;;;;;5079972;28;20036;-80
2022/09/18 05:02:34;;;;;;;7.28;0.65;;;10.80;99.90;;;;;;5091075;28;20048;-82
2022/09/18 05:04:59;;;;;;;6.10;1.05;;;10.80;99.90;;;;;;5087056;28;20147;-85
2022/09/18 05:07:26;;;;;;;2.50;0.93;;;10.80;99.90;;;;;;5084357;28;20040;-81
2022/09/18 05:09:52;;;;;;;5.53;0.98;;;10.70;99.90;;;;;;5086761;28;20130;-81
2022/09/18 05:12:17;;;;;;;4.13;0.60;;;10.80;99.90;;;;;;5082218;28;20074;-80
2022/09/18 05:14:43;;;;;;;3.65;0.80;;;10.80;99.90;;;;;;5081585;28;20040;-79
2022/09/18 05:17:09;;;;;;;7.28;0.60;;;10.80;99.90;;;;;;5085134;28;20052;-81
2022/09/18 05:19:35;;;;;;;6.32;0.70;;;10.80;99.90;;;;;;5084415;28;20044;-82
2022/09/18 05:22:00;;;;;;;6.35;1.00;;;10.80;99.90;;;;;;5089201;28;20074;-79
2022/09/18 05:24:26;;;;;;;2.53;0.60;;;10.70;99.90;;;;;;5088143;28;20544;-80
2022/09/18 05:26:52;;;;;;;2.17;0.63;;;10.80;99.90;;;;;;5089405;28;20056;-81
2022/09/18 05:29:17;;;;;;;2.35;0.68;;;10.80;99.90;;;;;;5079177;28;20052;-83
2022/09/18 05:31:44;;;;;;;3.00;0.77;;;10.80;99.90;;;;;;5087632;28;20075;-81
2022/09/18 05:34:19;;;;;;;4.15;0.95;;;10.80;99.90;;;;;;5068234;28;20067;-83
2022/09/18 05:36:49;;;;;;;3.15;0.40;;;10.80;99.90;;;;;;5085789;28;20072;-84
2022/09/18 05:39:14;;;;;;;2.65;0.80;;;10.80;99.90;;;;;;5107721;28;20032;-81
2022/09/18 05:41:41;;;;;;;2.38;0.40;;;10.80;99.90;;;;;;5092857;28;20071;-82
2022/09/18 05:44:07;;;;;;;7.32;0.85;;;10.80;99.90;;;;;;5086257;28;20094;-81
2022/09/18 05:46:34;;;;;;;3.60;1.17;;;10.80;99.90;;;;;;5095354;28;20055;-81
2022/09/18 05:49:00;;;;;;;7.03;0.82;;;10.80;99.90;;;;;;5086494;28;20127;-79
2022/09/18 05:51:28;;;;;;;3.35;0.50;;;10.80;99.90;;;;;;5092476;28;20044;-82
2022/09/18 05:53:53;;;;;;;2.85;0.63;;;10.80;99.90;;;;;;5088852;28;20040;-83
2022/09/18 05:56:26;;;;;;;6.80;1.40;;;10.80;99.90;;;;;;5092967;28;20481;-81
2022/09/18 05:58:57;;;;;;;8.63;1.75;;;10.80;99.90;;;;;;5085301;28;20068;-86
2022/09/18 06:01:23;;;;;;;1.58;0.45;;;10.80;99.90;;;;;;5087160;28;20491;-80
2022/09/18 06:03:50;;;;;;;5.43;0.30;;;10.80;99.90;;;;;;5088810;28;20062;-80
2022/09/18 06:06:19;;;;;;;3.85;0.68;;;10.80;99.90;;;;;;5087041;28;20044;-82
2022/09/18 06:08:45;;;;;;;3.55;0.40;;;10.90;99.90;;;;;;5065237;28;20075;-83
2022/09/18 06:11:19;;;;;;;3.95;0.70;;;10.90;99.90;;;;;;5092529;28;20058;-81
2022/09/18 06:13:47;;;;;;;6.90;0.75;;;10.90;99.90;;;;;;5081924;28;20040;-84
2022/09/18 06:16:14;;;;;;;3.97;0.60;;;10.90;99.90;;;;;;5107135;28;20040;-83
2022/09/18 06:18:41;;;;;;;4.63;0.82;;;11.00;99.90;;;;;;5087939;28;20051;-83
2022/09/18 06:21:08;;;;;;;0.85;0.50;;;11.00;99.90;;;;;;5090260;28;20060;-82
2022/09/18 06:23:34;;;;;;;3.92;0.80;;;11.00;99.90;;;;;;5091482;28;20052;-87
2022/09/18 06:26:02;;;;;;;4.38;0.60;;;11.00;99.90;;;;;;5090875;28;20057;-80
2022/09/18 06:28:33;;;;;;;3.75;0.93;;;11.00;99.90;;;;;;5075502;28;20049;-81
2022/09/18 06:31:00;;;;;;;3.75;1.10;;;11.00;99.90;;;;;;5089505;28;20074;-83
2022/09/18 06:33:28;;;;;;;1.45;0.63;;;11.00;99.90;;;;;;5091855;28;20059;-83
2022/09/18 06:35:54;;;;;;;6.38;0.93;;;11.00;99.90;;;;;;5089678;28;20044;-80
2022/09/18 06:38:23;;;;;;;5.13;0.82;;;11.10;99.90;;;;;;5092095;28;20056;-83
2022/09/18 06:40:53;;;;;;;3.70;0.70;;;11.10;99.90;;;;;;5082244;28;20141;-82
2022/09/18 06:43:20;;;;;;;5.32;0.57;;;11.10;99.90;;;;;;5085620;28;20040;-77
2022/09/18 06:45:53;;;;;;;1.48;0.52;;;11.10;99.90;;;;;;5091466;28;20047;-79
2022/09/18 06:48:19;;;;;;;3.78;0.80;;;11.10;99.90;;;;;;5087983;28;20104;-81
2022/09/18 06:50:53;;;;;;;5.05;1.27;;;11.10;99.90;;;;;;5087938;28;20056;-79
2022/09/18 06:53:20;;;;;;;3.28;0.70;;;11.10;99.90;;;;;;5083065;28;20397;-80
2022/09/18 06:55:52;;;;;;;7.70;0.98;;;11.10;99.90;;;;;;5088041;28;20055;-81
2022/09/18 06:58:20;;;;;;;0.90;0.50;;;11.10;99.90;;;;;;5085286;28;20394;-80
2022/09/18 07:00:46;;;;;;;2.20;0.50;;;11.10;99.90;;;;;;5092897;28;20051;-82
2022/09/18 07:03:13;;;;;;;4.97;0.73;;;11.20;99.90;;;;;;5090016;28;20036;-80
2022/09/18 07:05:41;;;;;;;6.65;0.60;;;11.20;99.90;;;;;;5089690;28;20054;-80
2022/09/18 07:08:08;;;;;;;1.58;0.57;;;11.20;99.90;;;;;;5065809;28;20056;-79
2022/09/18 07:10:34;;;;;;;7.00;0.80;;;11.20;99.90;;;;;;5079000;28;20418;-79
2022/09/18 07:13:01;;;;;;;5.63;0.68;;;11.20;99.90;;;;;;5092055;28;20111;-80
2022/09/18 07:15:35;;;;;;;3.70;0.60;;;11.20;99.90;;;;;;5089042;28;20044;-81
2022/09/18 07:18:04;;;;;;;4.18;0.50;;;11.20;99.90;;;;;;5091901;28;20040;-83
2022/09/18 07:20:34;;;;;;;4.97;0.70;;;11.20;99.90;;;;;;5078346;28;20099;-84
2022/09/18 07:23:01;;;;;;;7.53;1.00;;;11.20;99.90;;;;;;5080070;28;20056;-82
2022/09/18 07:25:28;;;;;;;3.65;0.63;;;11.20;99.90;;;;;;5119978;27;20517;-81
2022/09/18 07:27:54;;;;;;;3.65;0.85;;;11.20;99.90;;;;;;5085315;28;20044;-81
2022/09/18 07:30:20;;;;;;;8.25;0.77;;;11.20;99.90;;;;;;5084746;28;20044;-81
2022/09/18 07:32:47;;;;;;;3.40;0.63;;;11.20;99.90;;;;;;5083176;28;20047;-83
2022/09/18 07:35:13;;;;;;;4.47;0.60;;;11.30;99.90;;;;;;5082141;28;20052;-81
2022/09/18 07:37:39;;;;;;;3.45;0.55;;;11.30;99.90;;;;;;5083068;28;20055;-81
2022/09/18 07:40:09;;;;;;;3.95;0.65;;;11.30;99.90;;;;;;5085112;28;20169;-83
2022/09/18 07:42:34;;;;;;;5.68;0.98;;;11.30;99.90;;;;;;5082534;28;20052;-83
2022/09/18 07:45:00;;;;;;;3.35;0.68;;;11.20;99.90;;;;;;5081569;28;20039;-82
2022/09/18 07:47:26;;;;;;;4.68;1.13;;;11.20;99.90;;;;;;5062149;28;20048;-83
2022/09/18 07:49:53;;;;;;;5.03;0.60;;;11.30;99.90;;;;;;5081267;28;20071;-82
2022/09/18 07:52:19;;;;;;;10.40;1.08;;;11.20;99.90;;;;;;5082353;28;20256;-81
2022/09/18 07:54:44;;;;;;;4.60;0.77;;;11.20;99.90;;;;;;5082436;28;20501;-82
2022/09/18 07:57:10;;;;;;;3.97;0.57;;;11.30;99.90;;;;;;5086841;28;20062;-81
2022/09/18 07:59:36;;;;;;;3.50;0.68;;;11.30;99.90;;;;;;5081197;28;20457;-83
2022/09/18 08:02:03;;;;;;;5.55;0.70;;;11.30;99.90;;;;;;5084383;28;20080;-82
2022/09/18 08:04:29;;;;;;;6.25;0.75;;;11.30;99.90;;;;;;5084030;28;20064;-84
2022/09/18 08:07:02;;;;;;;3.53;0.40;;;11.30;99.90;;;;;;5074427;28;20048;-82
2022/09/18 08:09:28;;;;;;;3.40;0.85;;;11.30;99.90;;;;;;5074952;28;20483;-83
2022/09/18 08:11:53;;;;;;;4.20;0.75;;;11.30;99.90;;;;;;5086035;28;20044;-84
2022/09/18 08:14:19;;;;;;;3.90;0.88;;;11.30;99.90;;;;;;5083317;28;20111;-87
2022/09/18 08:16:45;;;;;;;1.45;0.50;;;11.30;99.90;;;;;;5079070;28;20047;-83
2022/09/18 08:19:11;;;;;;;4.65;1.00;;;11.30;99.90;;;;;;5078647;28;20040;-84
2022/09/18 08:21:37;;;;;;;6.22;0.82;;;11.30;99.90;;;;;;5095926;28;20048;-84
2022/09/18 08:24:03;;;;;;;6.28;0.70;;;11.30;99.90;;;;;;5082314;28;20063;-82
2022/09/18 08:26:29;;;;;;;4.65;0.65;;;11.30;99.90;;;;;;5077209;28;20269;-83
2022/09/18 08:28:55;;;;;;;4.80;0.90;;;11.30;99.90;;;;;;5081771;28;20051;-82
2022/09/18 08:31:20;;;;;;;4.47;0.85;;;11.30;99.90;;;;;;5081188;28;20403;-82
2022/09/18 08:33:46;;;;;;;4.15;0.70;;;11.30;99.90;;;;;;5082403;28;20063;-82
2022/09/18 08:36:11;;;;;;;2.28;0.60;;;11.30;99.90;;;;;;5083935;28;20032;-82
2022/09/18 08:38:37;;;;;;;5.68;0.57;;;11.40;99.90;;;;;;5083552;28;20039;-82
2022/09/18 08:41:24;;;;;;;2.55;0.43;;;11.40;99.90;;;;;;5081627;28;20036;-84
2022/09/18 08:44:29;;;;;;;2.67;1.27;;;11.40;99.90;;;;;;5070567;28;20044;-82
2022/09/18 08:47:34;;;;;;;4.22;0.88;;;11.50;99.90;;;;;;5080848;28;20055;-81
2022/09/18 08:50:08;;;;;;;1.90;0.50;;;11.50;99.90;;;;;;5073494;28;20545;-83
2022/09/18 08:52:39;;;;;;;4.07;0.50;;;11.50;99.90;;;;;;5117250;27;20471;-81
2022/09/18 08:55:28;;;;;;;2.70;0.45;;;11.50;99.90;;;;;;5083103;28;20497;-82
2022/09/18 08:57:59;;;;;;;2.17;0.80;;;11.50;99.90;;;;;;5084093;28;20120;-81
2022/09/18 09:00:34;;;;;;;5.75;0.93;;;11.50;99.90;;;;;;5084945;28;20047;-81
2022/09/18 09:03:19;;;;;;;1.55;0.40;;;11.50;99.90;;;;;;5083497;28;20044;-84
2022/09/18 09:06:06;;;;;;;2.45;0.70;;;11.50;99.90;;;;;;5077870;28;20040;-82
2022/09/18 09:08:49;;;;;;;2.92;0.50;;;11.50;99.90;;;;;;5077822;28;20040;-82
2022/09/18 09:11:31;;;;;;;2.97;0.40;;;11.50;99.90;;;;;;5077963;28;20146;-83
2022/09/18 09:14:31;;;;;;;4.32;0.50;;;11.50;99.90;;;;;;5089168;28;20401;-81
2022/09/18 09:17:16;;;;;;;2.00;0.35;;;11.60;99.90;;;;;;5088998;28;20032;-82
2022/09/18 09:20:17;;;;;;;3.33;0.40;;;11.50;99.90;;;;;;5081870;28;20370;-81
2022/09/18 09:23:06;;;;;;;3.15;0.40;;;11.50;99.90;;;;;;5070823;28;20852;-81
2022/09/18 09:25:43;;;;;;;0.40;0.28;;;11.50;99.90;;;;;;5115681;27;20052;-83
2022/09/18 09:28:11;;;;;;;1.27;0.40;;;11.40;99.90;;;;;;5087181;28;20040;-82
2022/09/18 09:30:38;;;;;;;4.18;0.60;;;11.40;99.90;;;;;;5088040;28;20468;-82
2022/09/18 09:33:22;;;;;;;7.05;0.60;;;11.40;99.90;;;;;;5086773;28;20048;-82
2022/09/18 09:35:53;;;;;;;2.17;0.40;;;11.40;99.90;;;;;;5090402;28;20071;-82
2022/09/18 09:38:27;;;;;;;2.50;0.60;;;11.40;99.90;;;;;;5087221;28;20048;-82
2022/09/18 09:40:55;;;;;;;1.58;0.30;;;11.40;99.90;;;;;;5080709;28;20131;-81
2022/09/18 09:43:37;;;;;;;3.65;0.40;;;11.40;99.90;;;;;;5074798;28;20049;-81
2022/09/18 09:46:16;;;;;;;1.98;0.50;;;11.40;99.90;;;;;;5075542;28;20044;-81
2022/09/18 09:49:05;;;;;;;2.38;0.80;;;11.40;99.90;;;;;;5074826;28;20052;-81
2022/09/18 09:51:40;;;;;;;0.77;0.32;;;11.50;99.90;;;;;;5070347;28;20153;-83
2022/09/18 09:54:10;;;;;;;3.80;0.50;;;11.60;99.90;;;;;;5086365;28;20070;-81
2022/09/18 09:56:54;;;;;;;5.32;0.43;;;11.50;99.90;;;;;;5089512;28;20507;-81
2022/09/18 09:59:28;;;;;;;3.03;0.50;;;11.50;99.90;;;;;;5079888;28;20056;-81
2022/09/18 10:02:17;;;;;;;1.33;0.40;;;11.50;99.90;;;;;;5085612;28;20536;-82
2022/09/18 10:04:51;;;;;;;4.53;0.40;;;11.50;99.90;;;;;;5085827;28;20053;-83
2022/09/18 10:07:33;;;;;;;6.72;0.90;;;11.60;99.90;;;;;;5087241;28;20036;-82
2022/09/18 10:10:14;;;;;;;2.75;0.60;;;11.60;99.90;;;;;;5083687;28;20478;-86
2022/09/18 10:13:03;;;;;;;0.80;0.50;;;11.60;99.90;;;;;;5083639;28;20445;-81
2022/09/18 10:15:40;;;;;;;4.25;0.47;;;11.60;99.90;;;;;;5080603;28;20043;-82
2022/09/18 10:18:23;;;;;;;3.60;0.50;;;11.70;99.90;;;;;;5086889;28;20044;-81
2022/09/18 10:20:53;;;;;;;5.22;0.70;;;11.70;99.90;;;;;;5073302;28;20041;-82
2022/09/18 10:23:29;;;;;;;4.07;0.60;;;11.60;99.90;;;;;;5071866;28;20487;-83
2022/09/18 10:25:59;;;;;;;5.57;1.40;;;11.70;99.90;;;;;;5085607;28;20051;-81
2022/09/18 10:28:28;;;;;;;2.75;0.60;;;11.70;99.90;;;;;;5079870;28;20122;-84
2022/09/18 10:31:04;;;;;;;3.90;0.60;;;11.70;99.90;;;;;;5073921;28;20052;-80
2022/09/18 10:33:31;;;;;;;3.53;0.40;;;11.70;99.90;;;;;;5075135;28;20410;-81
2022/09/18 10:36:18;;;;;;;2.05;0.38;;;11.70;99.90;;;;;;5102937;27;20055;-83
2022/09/18 10:38:44;;;;;;;5.05;0.68;;;11.70;99.90;;;;;;5081003;28;20165;-86
2022/09/18 10:41:31;;;;;;;3.85;0.57;;;11.70;99.90;;;;;;5075756;28;20060;-81
2022/09/18 10:44:06;;;;;;;1.25;0.30;;;11.70;99.90;;;;;;5077031;28;20044;-82
2022/09/18 10:46:34;;;;;;;4.57;0.65;;;11.80;99.90;;;;;;5081707;28;20549;-87
2022/09/18 10:49:16;;;;;;;3.38;0.80;;;11.80;99.90;;;;;;5069188;28;20102;-84
2022/09/18 10:51:42;;;;;;;3.45;0.90;;;11.80;99.90;;;;;;5069876;28;20139;-81
2022/09/18 10:54:17;;;;;;;2.10;0.38;;;11.80;99.90;;;;;;5065559;28;20123;-81
2022/09/18 10:56:43;;;;;;;4.10;0.60;;;11.80;99.90;;;;;;5065440;28;20521;-83
2022/09/18 10:59:27;;;;;;;5.60;1.00;;;11.80;99.90;;;;;;5071339;28;20048;-81
2022/09/18 11:02:02;;;;;;;4.55;0.90;;;11.80;99.90;;;;;;5073665;28;20073;-82
2022/09/18 11:04:29;;;;;;;5.03;0.75;;;11.90;99.90;;;;;;5072674;28;20072;-84
2022/09/18 11:06:55;;;;;;;2.60;0.47;;;11.80;99.90;;;;;;5071519;28;20044;-84
2022/09/18 11:09:30;;;;;;;1.75;0.63;;;11.90;99.90;;;;;;5073078;28;20059;-83
2022/09/18 11:11:56;;;;;;;4.32;0.63;;;11.90;99.90;;;;;;5074726;28;20398;-81
2022/09/18 11:14:29;;;;;;;3.75;0.90;;;11.90;99.90;;;;;;5072750;28;20097;-84
2022/09/18 11:16:58;;;;;;;1.58;0.55;;;12.00;99.90;;;;;;5072755;28;20044;-82
2022/09/18 11:19:37;;;;;;;3.05;0.65;;;12.00;99.90;;;;;;5072365;28;20090;-82
2022/09/18 11:22:25;;;;;;;4.65;0.70;;;12.00;99.90;;;;;;5071884;28;20040;-82
2022/09/18 11:25:07;;;;;;;3.60;0.60;;;12.00;99.90;;;;;;5074148;28;20509;-81
2022/09/18 11:28:02;;;;;;;;;;;12.10;99.90;;;;;;5074927;28;20425;-81
2022/09/18 11:30:34;;;;;;;4.55;0.50;;;12.10;99.90;;;;;;5060394;28;19923;-83
2022/09/18 11:33:25;;;;;;;2.85;0.47;;;12.10;99.90;;;;;;5078242;28;20067;-82
2022/09/18 11:36:03;;;;;;;3.40;0.80;;;12.20;99.90;;;;;;5083094;28;20036;-82
2022/09/18 11:38:30;;;;;;;2.72;0.52;;;12.20;99.90;;;;;;5079981;28;20624;-82
2022/09/18 11:40:58;;;;;;;2.33;0.90;;;12.20;99.90;;;;;;5080908;28;20475;-82
2022/09/18 11:43:27;;;;;;;5.13;0.65;;;12.20;99.90;;;;;;5079309;28;20040;-81
2022/09/18 11:46:18;;;;;;;6.55;1.25;;;12.20;99.90;;;;;;5070960;28;20049;-83
2022/09/18 11:48:53;;;;;;;3.20;0.70;;;12.30;99.90;;;;;;5071794;28;20048;-82
2022/09/18 11:51:48;;;;;;;2.40;0.80;;;12.20;99.90;;;;;;5072535;28;20041;-82
2022/09/18 11:54:42;;;;;;;1.25;0.60;;;12.30;99.90;;;;;;5063562;28;20052;-84
2022/09/18 11:57:16;;;;;;;31.75;16.17;;;12.40;99.90;;;;;;5064678;28;20048;-84
2022/09/18 11:59:48;;;;;;;4.75;1.10;;;12.50;99.90;;;;;;5076019;28;20052;-81
2022/09/18 12:02:18;;;;;;;;;;;12.60;99.90;;;;;;5124633;27;20459;-82
2022/09/18 12:04:51;;;;;;;2.17;0.85;;;12.50;99.90;;;;;;5081842;28;19920;-82
2022/09/18 12:07:47;;;;;;;2.72;1.95;;;12.60;99.90;;;;;;5074226;28;20056;-83
2022/09/18 12:10:38;;;;;;;3.60;0.75;;;12.70;99.90;;;;;;5078788;28;20439;-81
2022/09/18 12:13:17;;;;;;;2.95;0.70;;;12.70;99.90;;;;;;5085692;28;20482;-82
2022/09/18 12:15:49;;;;;;;5.80;1.20;;;12.90;99.90;;;;;;5082461;28;20040;-82
2022/09/18 12:18:21;;;;;;;2.35;0.70;;;13.00;99.90;;;;;;5076768;28;20102;-81
2022/09/18 12:21:08;;;;;;;;;;;13.10;99.90;;;;;;5084288;28;20075;-82
2022/09/18 12:23:34;;;;;;;4.70;1.13;;;13.20;99.90;;;;;;5077960;28;19951;-81
2022/09/18 12:26:22;;;;;;;6.53;0.90;;;13.30;99.90;;;;;;5075829;28;20056;-81
2022/09/18 12:29:02;;;;;;;4.65;1.17;;;13.30;99.90;;;;;;5075688;28;20044;-83
2022/09/18 12:31:31;;;;;;;7.70;1.13;;;13.40;99.90;;;;;;5079076;28;20077;-84
2022/09/18 12:34:18;;;;;;;15.65;7.70;;;13.40;99.90;;;;;;5078812;28;20642;-81
2022/09/18 12:37:11;;;;;;;5.45;1.00;;;13.50;99.90;;;;;;5074381;28;20051;-81
2022/09/18 12:40:10;;;;;;;4.85;0.95;;;13.50;99.90;;;;;;5054593;28;20181;-82
2022/09/18 12:42:59;;;;;;;2.75;0.60;;;13.50;99.90;;;;;;5114837;27;20055;-85
2022/09/18 12:45:49;;;;;;;7.65;1.20;;;13.40;99.90;;;;;;5071773;27;20056;-84
2022/09/18 12:48:21;;;;;;;6.53;0.93;;;13.40;99.90;;;;;;5069866;28;20059;-82
2022/09/18 12:51:26;;;;;;;4.53;1.02;;;13.30;99.90;;;;;;5067585;28;20041;-83
2022/09/18 12:54:13;;;;;;;8.27;1.05;;;13.20;99.90;;;;;;5065412;28;20078;-85
2022/09/18 12:56:49;;;;;;;6.03;1.10;;;13.20;99.90;;;;;;5076175;28;20090;-83
2022/09/18 12:59:38;;;;;;;3.28;0.65;;;13.10;99.90;;;;;;5076537;28;20071;-82
2022/09/18 13:02:18;;;;;;;5.63;0.90;;;13.00;99.90;;;;;;5071120;28;20044;-80
2022/09/18 13:05:00;;;;;;;3.30;0.45;;;13.00;99.90;;;;;;5076373;28;20123;-82
2022/09/18 13:07:38;;;;;;;2.70;0.57;;;12.90;99.90;;;;;;5075116;28;20040;-80
2022/09/18 13:10:09;;;;;;;18.77;8.65;;;12.90;99.90;;;;;;5074972;28;20044;-80
2022/09/18 13:12:42;;;;;;;16.70;6.80;;;12.90;99.90;;;;;;5076513;28;20072;-80
2022/09/18 13:15:25;;;;;;;5.10;1.30;;;13.00;99.90;;;;;;5077416;28;20051;-85